createdAt,value
2018-05-03T00:01:51.836Z,51.80
2018-05-03T00:04:19.134Z,51.70
2018-05-03T00:06:46.444Z,51.70
2018-05-03T00:09:14.515Z,51.60
2018-05-03T00:11:42.590Z,51.60
2018-05-03T00:14:10.686Z,51.50
2018-05-03T00:16:38.020Z,51.40
2018-05-03T00:19:05.369Z,51.50
2018-05-03T00:21:32.714Z,51.30
2018-05-03T00:24:00.781Z,51.30
2018-05-03T00:26:28.882Z,51.30
2018-05-03T00:28:56.169Z,51.20
2018-05-03T00:31:23.466Z,51.20
2018-05-03T00:33:50.793Z,51.30
2018-05-03T00:36:18.221Z,51.20
2018-05-03T00:38:46.281Z,51.30
2018-05-03T00:41:13.670Z,51.30
2018-05-03T00:43:40.980Z,51.30
2018-05-03T00:46:08.318Z,51.30
2018-05-03T00:48:35.640Z,51.30
2018-05-03T00:51:03.775Z,51.20
2018-05-03T00:53:31.067Z,51.20
2018-05-03T00:55:59.161Z,51.20
2018-05-03T00:58:26.538Z,51.20
2018-05-03T01:00:53.862Z,51.20
2018-05-03T01:03:21.234Z,51.20
2018-05-03T01:05:48.599Z,51.20
2018-05-03T01:08:15.886Z,51.20
2018-05-03T01:10:43.197Z,51.30
2018-05-03T01:13:10.550Z,51.30
2018-05-03T01:15:37.903Z,51.20
2018-05-03T01:18:05.213Z,51.20
2018-05-03T01:20:33.346Z,51.20
2018-05-03T01:23:00.669Z,51.20
2018-05-03T01:25:28.037Z,51.20
2018-05-03T01:27:55.370Z,51.20
2018-05-03T01:30:22.678Z,51.10
2018-05-03T01:32:49.999Z,51.10
2018-05-03T01:35:23.202Z,51.10
2018-05-03T01:37:50.505Z,51.10
2018-05-03T01:40:18.629Z,51.10
2018-05-03T01:42:45.987Z,51.00
2018-05-03T01:45:13.297Z,51.00
2018-05-03T01:47:40.621Z,51.00
2018-05-03T01:50:08.610Z,51.80
2018-05-03T01:52:36.607Z,51.20
2018-05-03T01:55:03.808Z,51.00
2018-05-03T01:57:31.011Z,51.20
2018-05-03T01:59:58.220Z,51.00
2018-05-03T02:02:26.243Z,51.70
2018-05-03T02:04:53.455Z,51.00
2018-05-03T02:07:21.424Z,51.00
2018-05-03T02:09:49.395Z,51.00
2018-05-03T02:12:16.614Z,51.00
2018-05-03T02:14:43.830Z,51.00
2018-05-03T02:17:11.071Z,51.00
2018-05-03T02:19:38.275Z,51.00
2018-05-03T02:22:06.371Z,51.00
2018-05-03T02:24:33.595Z,51.00
2018-05-03T02:27:01.592Z,51.00
2018-05-03T02:29:28.804Z,50.90
2018-05-03T02:31:56.008Z,50.90
2018-05-03T02:34:23.206Z,51.30
2018-05-03T02:36:50.425Z,51.00
2018-05-03T02:39:17.643Z,51.00
2018-05-03T02:41:44.995Z,51.00
2018-05-03T02:44:12.337Z,51.00
2018-05-03T02:46:39.678Z,51.00
2018-05-03T02:49:07.808Z,51.10
2018-05-03T02:51:36.646Z,51.10
2018-05-03T02:54:04.019Z,51.00
2018-05-03T02:56:31.382Z,51.10
2018-05-03T02:59:04.625Z,51.10
2018-05-03T03:01:44.439Z,51.10
2018-05-03T03:04:23.546Z,51.10
2018-05-03T03:07:02.687Z,51.10
2018-05-03T03:09:40.594Z,51.10
2018-05-03T03:12:20.397Z,51.10
2018-05-03T03:14:59.628Z,51.00
2018-05-03T03:17:38.730Z,51.00
2018-05-03T03:20:33.369Z,51.00
2018-05-03T03:23:12.410Z,51.00
2018-05-03T03:26:01.182Z,51.00
2018-05-03T03:28:54.026Z,51.00
2018-05-03T03:31:33.029Z,51.10
2018-05-03T03:34:04.431Z,51.10
2018-05-03T03:36:36.415Z,51.10
2018-05-03T03:39:09.793Z,51.10
2018-05-03T03:41:37.931Z,51.10
2018-05-03T03:44:11.224Z,51.00
2018-05-03T03:46:38.550Z,51.00
2018-05-03T03:49:05.901Z,51.00
2018-05-03T03:51:33.237Z,51.00
2018-05-03T03:54:00.565Z,51.00
2018-05-03T03:56:28.670Z,50.90
2018-05-03T03:58:56.018Z,50.90
2018-05-03T04:01:23.426Z,50.90
2018-05-03T04:03:50.826Z,50.90
2018-05-03T04:06:18.168Z,50.90
2018-05-03T04:08:46.295Z,50.80
2018-05-03T04:11:13.639Z,50.80
2018-05-03T04:13:41.000Z,50.80
2018-05-03T04:16:08.354Z,50.80
2018-05-03T04:18:41.523Z,50.80
2018-05-03T04:21:14.857Z,50.80
2018-05-03T04:23:47.998Z,50.80
2018-05-03T04:26:15.379Z,50.90
2018-05-03T04:28:42.737Z,50.80
2018-05-03T04:31:10.074Z,50.80
2018-05-03T04:33:37.426Z,50.90
2018-05-03T04:36:04.749Z,50.90
2018-05-03T04:38:32.129Z,50.90
2018-05-03T04:40:59.502Z,50.90
2018-05-03T04:43:26.814Z,51.00
2018-05-03T04:45:54.153Z,51.10
2018-05-03T04:48:22.244Z,51.10
2018-05-03T04:50:49.750Z,51.10
2018-05-03T04:53:17.089Z,51.10
2018-05-03T04:55:44.436Z,51.10
2018-05-03T04:58:11.792Z,51.10
2018-05-03T05:00:39.168Z,51.20
2018-05-03T05:03:06.533Z,51.20
2018-05-03T05:05:34.655Z,51.30
2018-05-03T05:08:01.987Z,51.30
2018-05-03T05:10:29.360Z,51.30
2018-05-03T05:12:56.710Z,51.30
2018-05-03T05:15:24.037Z,51.40
2018-05-03T05:17:51.460Z,51.40
2018-05-03T05:20:18.789Z,51.40
2018-05-03T05:22:46.119Z,51.40
2018-05-03T05:25:13.498Z,51.50
2018-05-03T05:27:41.652Z,51.50
2018-05-03T05:30:08.973Z,51.50
2018-05-03T05:32:36.298Z,51.50
2018-05-03T05:35:03.688Z,51.50
2018-05-03T05:37:31.009Z,51.60
2018-05-03T05:39:58.386Z,51.60
2018-05-03T05:42:26.576Z,51.80
2018-05-03T05:44:54.012Z,51.70
2018-05-03T05:47:22.209Z,52.10
2018-05-03T05:49:49.536Z,52.10
2018-05-03T05:52:17.714Z,52.30
2018-05-03T05:54:45.029Z,52.20
2018-05-03T05:57:12.390Z,52.20
2018-05-03T05:59:39.757Z,52.30
2018-05-03T06:02:07.846Z,52.40
2018-05-03T06:04:36.009Z,52.40
2018-05-03T06:07:04.135Z,52.50
2018-05-03T06:09:31.491Z,52.50
2018-05-03T06:11:58.836Z,52.50
2018-05-03T06:14:26.169Z,52.60
2018-05-03T06:16:53.494Z,52.70
2018-05-03T06:19:21.740Z,52.80
2018-05-03T06:21:49.119Z,52.70
2018-05-03T06:24:17.266Z,53.00
2018-05-03T06:26:44.660Z,53.00
2018-05-03T06:29:11.998Z,53.10
2018-05-03T06:31:40.108Z,53.00
2018-05-03T06:34:07.441Z,53.00
2018-05-03T06:36:34.785Z,53.00
2018-05-03T06:39:02.937Z,53.20
2018-05-03T06:41:31.052Z,53.20
2018-05-03T06:43:58.382Z,53.10
2018-05-03T06:46:26.529Z,53.10
2018-05-03T06:48:53.892Z,53.10
2018-05-03T06:51:21.975Z,53.20
2018-05-03T06:53:50.047Z,53.00
2018-05-03T06:56:18.187Z,53.00
2018-05-03T06:58:45.529Z,53.00
2018-05-03T07:01:12.880Z,53.10
2018-05-03T07:03:40.256Z,53.20
2018-05-03T07:06:07.621Z,53.20
2018-05-03T07:08:35.727Z,53.60
2018-05-03T07:11:03.057Z,53.50
2018-05-03T07:13:31.144Z,53.70
2018-05-03T07:15:58.492Z,53.70
2018-05-03T07:18:26.036Z,53.70
2018-05-03T07:20:54.143Z,53.80
2018-05-03T07:23:21.469Z,53.80
2018-05-03T07:25:48.794Z,53.30
2018-05-03T07:28:16.142Z,52.70
2018-05-03T07:30:43.500Z,52.50
2018-05-03T07:33:10.887Z,52.70
2018-05-03T07:35:38.288Z,53.10
2018-05-03T07:38:05.613Z,52.80
2018-05-03T07:40:33.142Z,52.80
2018-05-03T07:43:01.224Z,53.20
2018-05-03T07:45:28.616Z,53.10
2018-05-03T07:47:56.025Z,53.40
2018-05-03T07:50:23.358Z,53.50
2018-05-03T07:52:51.447Z,53.80
2018-05-03T07:55:19.636Z,53.80
2018-05-03T07:57:47.000Z,53.80
2018-05-03T08:00:14.340Z,53.60
2018-05-03T08:02:41.666Z,53.50
2018-05-03T08:07:42.394Z,53.10
2018-05-03T08:10:09.737Z,53.30
2018-05-03T08:12:37.112Z,53.40
2018-05-03T08:15:04.497Z,53.20
2018-05-03T08:17:31.818Z,53.10
2018-05-03T08:19:59.147Z,53.30
2018-05-03T08:22:26.547Z,53.80
2018-05-03T08:24:54.629Z,54.30
2018-05-03T08:27:21.972Z,54.30
2018-05-03T08:29:50.089Z,54.60
2018-05-03T08:32:17.436Z,54.60
2018-05-03T08:34:44.861Z,54.70
2018-05-03T08:37:12.201Z,54.90
2018-05-03T08:39:40.353Z,55.20
2018-05-03T08:42:08.446Z,56.00
2018-05-03T08:44:35.800Z,55.50
2018-05-03T08:47:03.181Z,55.60
2018-05-03T08:49:30.517Z,55.80
2018-05-03T08:52:04.489Z,56.20
2018-05-03T08:54:38.533Z,56.70
2018-05-03T08:57:11.933Z,56.80
2018-05-03T08:59:39.288Z,57.20
2018-05-03T09:02:06.629Z,57.10
2018-05-03T09:04:34.774Z,57.20
2018-05-03T09:07:02.921Z,57.20
2018-05-03T09:09:30.277Z,57.20
2018-05-03T09:11:57.616Z,57.20
2018-05-03T09:14:24.948Z,57.20
2018-05-03T09:16:52.201Z,56.70
2018-05-03T09:19:20.208Z,57.10
2018-05-03T09:21:47.436Z,57.10
2018-05-03T09:24:14.664Z,57.50
2018-05-03T09:26:41.883Z,57.80
2018-05-03T09:29:09.072Z,57.90
2018-05-03T09:31:36.287Z,58.00
2018-05-03T09:34:03.476Z,58.10
2018-05-03T09:36:30.679Z,58.10
2018-05-03T09:38:57.877Z,58.10
2018-05-03T09:41:25.106Z,58.10
2018-05-03T09:43:53.091Z,58.60
2018-05-03T09:46:20.273Z,58.50
2018-05-03T09:48:47.477Z,58.50
2018-05-03T09:51:15.456Z,58.40
2018-05-03T09:53:42.668Z,58.40
2018-05-03T09:56:09.883Z,58.50
2018-05-03T09:58:37.100Z,58.60
2018-05-03T10:01:05.106Z,59.00
2018-05-03T10:03:32.335Z,58.90
2018-05-03T10:05:59.559Z,58.90
2018-05-03T10:08:27.543Z,59.10
2018-05-03T10:10:54.756Z,59.00
2018-05-03T10:13:22.010Z,58.80
2018-05-03T10:15:49.209Z,59.00
2018-05-03T10:18:16.427Z,59.00
2018-05-03T10:20:44.442Z,59.30
2018-05-03T10:23:11.648Z,59.20
2018-05-03T10:25:39.706Z,59.40
2018-05-03T10:28:07.690Z,59.90
2018-05-03T10:30:35.667Z,59.30
2018-05-03T10:33:02.891Z,59.30
2018-05-03T10:35:30.092Z,59.30
2018-05-03T10:37:57.311Z,59.70
2018-05-03T10:40:25.296Z,59.70
2018-05-03T10:42:52.503Z,59.70
2018-05-03T10:45:19.740Z,59.80
2018-05-03T10:47:46.964Z,59.90
2018-05-03T10:50:14.175Z,60.00
2018-05-03T10:52:42.147Z,60.30
2018-05-03T10:55:10.127Z,60.00
2018-05-03T10:57:37.347Z,60.00
2018-05-03T11:00:04.591Z,60.10
2018-05-03T11:02:31.791Z,59.90
2018-05-03T11:04:59.035Z,60.00
2018-05-03T11:07:26.276Z,60.20
2018-05-03T11:09:53.527Z,60.40
2018-05-03T11:12:20.715Z,60.40
2018-05-03T11:14:47.912Z,60.50
2018-05-03T11:17:15.883Z,60.00
2018-05-03T11:19:43.837Z,60.20
2018-05-03T11:22:11.041Z,60.20
2018-05-03T11:24:38.263Z,60.50
2018-05-03T11:27:05.498Z,60.50
2018-05-03T11:29:33.468Z,60.70
2018-05-03T11:32:01.434Z,60.70
2018-05-03T11:34:29.396Z,60.80
2018-05-03T11:36:57.433Z,60.70
2018-05-03T11:39:24.637Z,60.70
2018-05-03T11:41:51.859Z,60.80
2018-05-03T11:44:19.173Z,60.80
2018-05-03T11:46:46.387Z,60.80
2018-05-03T11:49:13.611Z,61.10
2018-05-03T11:51:40.842Z,61.40
2018-05-03T11:54:08.042Z,61.20
2018-05-03T11:56:35.275Z,61.60
2018-05-03T11:59:03.332Z,62.20
2018-05-03T12:01:30.509Z,62.00
2018-05-03T12:03:57.708Z,62.20
2018-05-03T12:06:24.900Z,61.90
2018-05-03T12:08:52.977Z,61.90
2018-05-03T12:11:20.355Z,61.90
2018-05-03T12:13:47.661Z,62.00
2018-05-03T12:16:15.746Z,62.10
2018-05-03T12:18:43.048Z,62.10
2018-05-03T12:21:10.398Z,62.00
2018-05-03T12:23:37.707Z,62.20
2018-05-03T12:26:04.991Z,62.30
2018-05-03T12:28:33.054Z,62.10
2018-05-03T12:31:00.376Z,62.20
2018-05-03T12:33:27.684Z,62.10
2018-05-03T12:35:55.000Z,62.10
2018-05-03T12:38:22.339Z,62.20
2018-05-03T12:40:49.644Z,62.30
2018-05-03T12:43:16.953Z,62.20
2018-05-03T12:45:44.252Z,62.40
2018-05-03T12:48:11.642Z,62.60
2018-05-03T12:50:39.689Z,63.00
2018-05-03T12:53:06.982Z,63.00
2018-05-03T12:55:34.321Z,63.20
2018-05-03T12:58:01.642Z,63.30
2018-05-03T13:00:29.004Z,63.40
2018-05-03T13:02:57.067Z,63.20
2018-05-03T13:05:24.373Z,63.20
2018-05-03T13:07:51.703Z,63.00
2018-05-03T13:10:18.992Z,62.40
2018-05-03T13:12:46.306Z,62.30
2018-05-03T13:15:13.644Z,62.40
2018-05-03T13:17:41.709Z,61.70
2018-05-03T13:20:09.821Z,61.90
2018-05-03T13:22:37.151Z,61.90
2018-05-03T13:25:05.241Z,61.00
2018-05-03T13:27:32.600Z,61.00
2018-05-03T13:29:59.903Z,60.50
2018-05-03T13:32:27.221Z,59.60
2018-05-03T13:34:54.525Z,59.80
2018-05-03T13:37:22.622Z,59.10
2018-05-03T13:39:49.915Z,59.10
2018-05-03T13:42:17.220Z,59.70
2018-05-03T13:44:44.514Z,60.80
2018-05-03T13:47:11.827Z,61.30
2018-05-03T13:49:39.143Z,61.80
2018-05-03T13:52:07.235Z,63.10
2018-05-03T13:54:35.291Z,63.30
2018-05-03T13:57:03.359Z,63.10
2018-05-03T13:59:31.492Z,63.50
2018-05-03T14:01:58.797Z,63.50
2018-05-03T14:04:26.881Z,63.80
2018-05-03T14:06:54.282Z,63.70
2018-05-03T14:09:21.550Z,64.40
2018-05-03T14:11:49.663Z,65.20
2018-05-03T14:14:16.988Z,65.10
2018-05-03T14:16:45.074Z,64.70
2018-05-03T14:19:12.481Z,64.70
2018-05-03T14:21:39.768Z,65.20
2018-05-03T14:24:07.948Z,65.10
2018-05-03T14:26:35.959Z,65.30
2018-05-03T14:29:03.156Z,65.20
2018-05-03T14:31:30.469Z,65.60
2018-05-03T14:33:57.708Z,66.30
2018-05-03T14:36:24.940Z,65.70
2018-05-03T14:38:52.137Z,65.30
2018-05-03T14:41:19.328Z,65.30
2018-05-03T14:43:47.332Z,65.40
2018-05-03T14:46:14.596Z,65.30
2018-05-03T14:48:41.788Z,65.80
2018-05-03T14:51:09.842Z,65.50
2018-05-03T14:53:37.824Z,65.40
2018-05-03T14:56:05.814Z,65.60
2018-05-03T14:58:33.020Z,65.50
2018-05-03T15:01:00.257Z,65.40
2018-05-03T15:03:27.471Z,65.70
2018-05-03T15:05:54.668Z,65.40
2018-05-03T15:08:22.721Z,65.20
2018-05-03T15:10:50.014Z,65.30
2018-05-03T15:13:18.118Z,65.20
2018-05-03T15:15:45.433Z,65.10
2018-05-03T15:18:12.862Z,65.10
2018-05-03T15:20:40.168Z,65.10
2018-05-03T15:23:07.562Z,64.90
2018-05-03T15:25:34.908Z,64.90
2018-05-03T15:28:02.269Z,64.80
2018-05-03T15:30:29.602Z,65.00
2018-05-03T15:32:56.940Z,65.00
2018-05-03T15:35:24.305Z,65.00
2018-05-03T15:37:51.662Z,65.00
2018-05-03T15:40:19.011Z,65.20
2018-05-03T15:42:46.341Z,65.00
2018-05-03T15:45:13.699Z,65.00
2018-05-03T15:47:41.050Z,65.00
2018-05-03T15:50:08.506Z,65.60
2018-05-03T15:52:36.620Z,64.20
2018-05-03T15:55:03.983Z,64.20
2018-05-03T15:57:31.326Z,64.10
2018-05-03T15:59:58.661Z,64.00
2018-05-03T16:02:25.896Z,64.10
2018-05-03T16:04:53.120Z,64.10
2018-05-03T16:07:21.107Z,64.00
2018-05-03T16:09:49.058Z,63.90
2018-05-03T16:12:17.024Z,63.90
2018-05-03T16:14:45.000Z,63.70
2018-05-03T16:17:12.981Z,63.60
2018-05-03T16:19:40.177Z,63.60
2018-05-03T16:22:07.384Z,63.60
2018-05-03T16:24:34.698Z,63.70
2018-05-03T16:27:01.965Z,63.80
2018-05-03T16:29:29.925Z,64.10
2018-05-03T16:31:57.165Z,64.00
2018-05-03T16:34:24.449Z,64.10
2018-05-03T16:36:51.638Z,64.10
2018-05-03T16:39:18.881Z,64.30
2018-05-03T16:41:46.095Z,64.60
2018-05-03T16:44:14.084Z,64.60
2018-05-03T16:46:41.366Z,64.60
2018-05-03T16:49:08.597Z,64.80
2018-05-03T16:51:35.785Z,64.80
2018-05-03T16:54:02.978Z,64.70
2018-05-03T16:56:30.185Z,64.90
2018-05-03T16:58:57.393Z,65.40
2018-05-03T17:01:24.613Z,65.70
2018-05-03T17:03:52.642Z,66.30
2018-05-03T17:06:19.840Z,66.30
2018-05-03T17:08:47.068Z,66.30
2018-05-03T17:11:14.282Z,66.50
2018-05-03T17:13:41.484Z,66.60
2018-05-03T17:16:09.441Z,66.80
2018-05-03T17:18:37.439Z,66.70
2018-05-03T17:21:04.666Z,66.70
2018-05-03T17:23:32.629Z,66.60
2018-05-03T17:26:00.639Z,66.40
2018-05-03T17:28:27.839Z,66.40
2018-05-03T17:30:55.052Z,66.30
2018-05-03T17:33:22.252Z,67.10
2018-05-03T17:35:50.249Z,65.80
2018-05-03T17:38:17.476Z,65.80
2018-05-03T17:40:45.461Z,65.70
2018-05-03T17:43:12.692Z,65.70
2018-05-03T17:45:40.705Z,65.50
2018-05-03T17:48:07.920Z,65.50
2018-05-03T17:50:35.907Z,65.40
2018-05-03T17:53:03.147Z,65.40
2018-05-03T17:55:30.390Z,65.50
2018-05-03T17:57:57.590Z,65.40
2018-05-03T18:00:24.833Z,65.30
2018-05-03T18:02:52.063Z,65.00
2018-05-03T18:05:19.272Z,64.90
2018-05-03T18:07:46.467Z,64.90
2018-05-03T18:10:13.705Z,64.70
2018-05-03T18:12:40.900Z,64.80
2018-05-03T18:15:08.099Z,64.80
2018-05-03T18:17:35.308Z,65.40
2018-05-03T18:20:02.514Z,64.70
2018-05-03T18:22:29.767Z,64.60
2018-05-03T18:24:56.985Z,64.50
2018-05-03T18:27:24.969Z,64.30
2018-05-03T18:29:52.213Z,64.20
2018-05-03T18:32:20.248Z,64.00
2018-05-03T18:34:47.460Z,64.00
2018-05-03T18:37:14.702Z,63.70
2018-05-03T18:39:41.900Z,63.70
2018-05-03T18:42:09.122Z,63.60
2018-05-03T18:44:36.330Z,63.40
2018-05-03T18:47:04.294Z,63.10
2018-05-03T18:49:32.344Z,63.00
2018-05-03T18:51:59.541Z,62.90
2018-05-03T18:54:26.781Z,62.80
2018-05-03T18:56:53.969Z,62.70
2018-05-03T18:59:21.209Z,62.60
2018-05-03T19:01:48.414Z,62.60
2018-05-03T19:04:15.683Z,62.50
2018-05-03T19:06:42.929Z,62.60
2018-05-03T19:09:10.137Z,62.80
2018-05-03T19:11:37.398Z,63.80
2018-05-03T19:14:04.599Z,64.10
2018-05-03T19:16:31.842Z,63.60
2018-05-03T19:18:59.095Z,64.90
2018-05-03T19:21:26.323Z,65.10
2018-05-03T19:23:54.323Z,65.60
2018-05-03T19:26:21.536Z,65.60
2018-05-03T19:28:49.524Z,65.80
2018-05-03T19:31:16.748Z,65.70
2018-05-03T19:33:44.706Z,66.10
2018-05-03T19:36:12.706Z,66.20
2018-05-03T19:38:39.947Z,66.20
2018-05-03T19:41:07.210Z,66.20
2018-05-03T19:43:34.589Z,66.30
2018-05-03T19:46:01.833Z,66.50
2018-05-03T19:48:29.180Z,66.80
2018-05-03T19:50:56.543Z,66.70
2018-05-03T19:53:24.054Z,66.80
2018-05-03T19:55:52.238Z,66.90
2018-05-03T19:58:19.820Z,66.80
2018-05-03T20:00:47.362Z,67.10
2018-05-03T20:03:15.025Z,67.20
2018-05-03T20:05:42.769Z,67.20
2018-05-03T20:08:10.277Z,67.30
2018-05-03T20:10:37.750Z,67.20
2018-05-03T20:13:05.089Z,67.30
2018-05-03T20:15:32.305Z,67.20
2018-05-03T20:17:59.525Z,67.20
2018-05-03T20:20:26.741Z,67.10
2018-05-03T20:22:54.031Z,67.00
2018-05-03T20:25:22.113Z,67.20
2018-05-03T20:27:50.694Z,67.40
2018-05-03T20:30:18.713Z,67.50
2018-05-03T20:32:45.953Z,67.50
2018-05-03T20:35:13.167Z,67.60
2018-05-03T20:37:41.966Z,67.60
2018-05-03T20:40:09.212Z,67.60
2018-05-03T20:42:37.200Z,67.30
2018-05-03T20:45:04.418Z,67.30
2018-05-03T20:47:32.400Z,67.20
2018-05-03T20:50:00.383Z,67.20
2018-05-03T20:52:27.598Z,67.20
2018-05-03T20:54:55.583Z,67.60
2018-05-03T20:57:24.542Z,67.60
2018-05-03T20:59:51.860Z,67.50
2018-05-03T21:02:19.059Z,67.50
2018-05-03T21:04:46.242Z,67.30
2018-05-03T21:07:13.508Z,67.20
2018-05-03T21:09:41.432Z,67.10
2018-05-03T21:12:09.412Z,67.00
2018-05-03T21:14:37.389Z,66.90
2018-05-03T21:17:04.592Z,66.90
2018-05-03T21:19:31.792Z,66.90
2018-05-03T21:21:58.996Z,66.90
2018-05-03T21:24:26.212Z,66.90
2018-05-03T21:26:53.433Z,66.80
2018-05-03T21:29:21.389Z,66.70
2018-05-03T21:31:49.357Z,66.70
2018-05-03T21:34:17.424Z,66.70
2018-05-03T21:36:45.430Z,66.50
2018-05-03T21:39:12.651Z,66.50
2018-05-03T21:41:40.698Z,66.50
2018-05-03T21:44:07.869Z,66.40
2018-05-03T21:46:35.855Z,66.40
2018-05-03T21:49:03.084Z,66.40
2018-05-03T21:51:31.044Z,66.40
2018-05-03T21:53:59.020Z,66.50
2018-05-03T21:56:26.989Z,66.50
2018-05-03T21:58:54.997Z,66.40
2018-05-03T22:01:22.220Z,66.40
2018-05-03T22:03:49.525Z,66.30
2018-05-03T22:06:17.471Z,66.40
2018-05-03T22:08:44.711Z,66.40
2018-05-03T22:11:11.901Z,66.50
2018-05-03T22:13:39.116Z,66.50
2018-05-03T22:16:06.341Z,66.50
2018-05-03T22:18:33.548Z,66.50
2018-05-03T22:21:00.750Z,66.60
2018-05-03T22:23:27.991Z,66.60
2018-05-03T22:25:55.223Z,66.60
2018-05-03T22:28:23.219Z,66.70
2018-05-03T22:30:50.451Z,66.70
2018-05-03T22:33:18.431Z,67.00
2018-05-03T22:35:46.408Z,67.00
2018-05-03T22:38:13.619Z,66.90
2018-05-03T22:40:40.909Z,67.00
2018-05-03T22:43:08.869Z,67.00
2018-05-03T22:45:36.081Z,67.00
2018-05-03T22:48:03.304Z,67.00
2018-05-03T22:50:30.503Z,67.10
2018-05-03T22:52:58.457Z,67.20
2018-05-03T22:55:25.698Z,67.10
2018-05-03T22:57:52.880Z,67.10
2018-05-03T23:00:20.847Z,67.10
2018-05-03T23:02:48.827Z,67.00
2018-05-03T23:05:16.041Z,67.00
2018-05-03T23:07:44.156Z,67.10
2018-05-03T23:10:11.337Z,67.00
2018-05-03T23:12:38.711Z,67.00
2018-05-03T23:15:06.057Z,67.10
2018-05-03T23:17:33.283Z,67.10
2018-05-03T23:20:00.648Z,67.00
2018-05-03T23:22:30.769Z,67.00
2018-05-03T23:24:57.973Z,67.10
2018-05-03T23:27:25.215Z,67.00
2018-05-03T23:29:53.173Z,67.10
2018-05-03T23:32:21.159Z,67.30
2018-05-03T23:34:48.395Z,67.20
2018-05-03T23:37:16.365Z,67.20
2018-05-03T23:39:44.337Z,67.20
2018-05-03T23:42:12.319Z,67.20
2018-05-03T23:44:39.599Z,67.20
2018-05-03T23:47:06.808Z,67.30
2018-05-03T23:49:34.811Z,67.40
2018-05-03T23:52:02.148Z,67.30
2018-05-03T23:54:29.477Z,67.40
2018-05-03T23:56:56.797Z,67.30
2018-05-03T23:59:24.120Z,67.30
